createdAt,value
2023-03-06T00:00:35.067Z,97644.77
2023-03-06T00:03:02.185Z,97641.79
2023-03-06T00:05:29.915Z,97636.52
2023-03-06T00:07:57.309Z,97638.35
2023-03-06T00:10:27.159Z,97638.73
2023-03-06T00:12:59.718Z,97641.20
2023-03-06T00:15:27.690Z,97638.40
2023-03-06T00:17:55.320Z,97637.05
2023-03-06T00:20:23.323Z,97638.48
2023-03-06T00:22:51.064Z,97632.67
2023-03-06T00:25:21.706Z,97630.55
2023-03-06T00:27:49.948Z,97630.64
2023-03-06T00:30:21.746Z,97627.02
2023-03-06T00:32:49.552Z,97621.55
2023-03-06T00:35:17.085Z,97627.31
2023-03-06T00:37:44.635Z,97627.63
2023-03-06T00:40:18.295Z,97626.50
2023-03-06T00:42:46.263Z,97619.80
2023-03-06T00:45:14.185Z,97616.20
2023-03-06T00:47:42.207Z,97621.92
2023-03-06T00:50:11.109Z,97625.80
2023-03-06T00:52:38.337Z,97619.61
2023-03-06T00:55:06.546Z,97616.17
2023-03-06T00:57:33.589Z,97622.46
2023-03-06T01:00:00.444Z,97620.20
2023-03-06T01:02:28.030Z,97622.66
2023-03-06T01:04:56.060Z,97621.68
2023-03-06T01:07:23.465Z,97618.31
2023-03-06T01:09:50.593Z,97617.12
2023-03-06T01:12:18.023Z,97615.05
2023-03-06T01:14:45.676Z,97610.90
2023-03-06T01:17:12.818Z,97609.48
2023-03-06T01:19:40.079Z,97611.15
2023-03-06T01:22:07.009Z,97611.02
2023-03-06T01:24:34.051Z,97610.45
2023-03-06T01:27:01.101Z,97611.25
2023-03-06T01:29:28.416Z,97608.99
2023-03-06T01:31:55.543Z,97606.00
2023-03-06T01:34:22.652Z,97606.02
2023-03-06T01:36:49.859Z,97604.52
2023-03-06T01:39:17.307Z,97603.02
2023-03-06T01:41:44.393Z,97597.80
2023-03-06T01:44:13.997Z,97598.88
2023-03-06T01:46:45.466Z,97590.42
2023-03-06T01:49:32.158Z,97582.02
2023-03-06T01:52:04.023Z,97578.54
2023-03-06T01:54:38.913Z,97567.71
2023-03-06T01:57:10.043Z,97568.00
2023-03-06T01:59:37.448Z,97573.04
2023-03-06T02:02:07.363Z,97570.80
2023-03-06T02:04:35.700Z,97570.15
2023-03-06T02:07:06.689Z,97569.34
2023-03-06T02:09:35.344Z,97566.10
2023-03-06T02:12:03.867Z,97567.18
2023-03-06T02:14:31.229Z,97563.59
2023-03-06T02:16:58.378Z,97565.48
2023-03-06T02:19:34.023Z,97565.42
2023-03-06T02:22:02.112Z,97563.19
2023-03-06T02:24:52.329Z,97566.58
2023-03-06T02:27:20.270Z,97562.99
2023-03-06T02:29:47.310Z,97559.36
2023-03-06T02:32:14.309Z,97560.55
2023-03-06T02:34:47.897Z,97564.42
2023-03-06T02:37:14.665Z,97566.74
2023-03-06T02:40:00.905Z,97564.23
2023-03-06T02:42:31.788Z,97567.34
2023-03-06T02:45:02.417Z,97564.86
2023-03-06T02:47:29.477Z,97565.63
2023-03-06T02:49:56.342Z,97563.34
2023-03-06T02:52:23.300Z,97565.34
2023-03-06T02:54:50.662Z,97569.35
2023-03-06T02:57:17.626Z,97566.11
2023-03-06T02:59:44.445Z,97565.98
2023-03-06T03:02:11.483Z,97565.70
2023-03-06T03:04:38.494Z,97563.36
2023-03-06T03:07:05.676Z,97564.98
2023-03-06T03:09:37.700Z,97561.55
2023-03-06T03:12:07.148Z,97561.25
2023-03-06T03:14:34.289Z,97560.45
2023-03-06T03:17:02.464Z,97558.91
2023-03-06T03:19:29.607Z,97560.23
2023-03-06T03:21:57.221Z,97557.77
2023-03-06T03:24:25.673Z,97555.85
2023-03-06T03:26:53.203Z,97556.80
2023-03-06T03:29:20.562Z,97556.09
2023-03-06T03:31:47.611Z,97556.79
2023-03-06T03:34:15.077Z,97553.17
2023-03-06T03:36:42.421Z,97554.29
2023-03-06T03:39:10.696Z,97549.42
2023-03-06T03:41:37.651Z,97546.05
2023-03-06T03:44:04.695Z,97544.23
2023-03-06T03:46:32.151Z,97540.55
2023-03-06T03:48:59.489Z,97539.20
2023-03-06T03:51:26.735Z,97531.95
2023-03-06T03:53:53.776Z,97531.24
2023-03-06T03:56:20.871Z,97523.16
2023-03-06T03:58:48.273Z,97518.36
2023-03-06T04:01:15.261Z,97517.49
2023-03-06T04:03:42.362Z,97513.55
2023-03-06T04:06:09.610Z,97514.32
2023-03-06T04:08:37.044Z,97519.91
2023-03-06T04:11:04.429Z,97522.27
2023-03-06T04:13:31.738Z,97526.01
2023-03-06T04:16:00.051Z,97526.34
2023-03-06T04:18:27.399Z,97520.73
2023-03-06T04:20:54.699Z,97521.09
2023-03-06T04:23:23.182Z,97523.41
2023-03-06T04:25:51.342Z,97521.70
2023-03-06T04:28:18.415Z,97519.62
2023-03-06T04:30:45.338Z,97511.72
2023-03-06T04:33:12.743Z,97495.35
2023-03-06T04:35:39.840Z,97484.14
2023-03-06T04:38:07.141Z,97489.79
2023-03-06T04:40:36.653Z,97487.63
2023-03-06T04:43:04.709Z,97480.92
2023-03-06T04:45:33.337Z,97476.27
2023-03-06T04:48:00.643Z,97480.09
2023-03-06T04:50:32.804Z,97480.69
2023-03-06T04:53:03.914Z,97490.45
2023-03-06T04:55:31.450Z,97495.61
2023-03-06T04:57:59.376Z,97496.23
2023-03-06T05:00:32.618Z,97493.23
2023-03-06T05:03:01.269Z,97488.41
2023-03-06T05:05:28.712Z,97487.77
2023-03-06T05:07:56.297Z,97481.64
2023-03-06T05:10:23.833Z,97478.36
2023-03-06T05:12:51.064Z,97480.45
2023-03-06T05:15:18.523Z,97482.02
2023-03-06T05:17:46.786Z,97479.86
2023-03-06T05:20:15.908Z,97471.26
2023-03-06T05:22:43.927Z,97473.90
2023-03-06T05:25:11.200Z,97474.84
2023-03-06T05:27:39.274Z,97475.10
2023-03-06T05:30:07.936Z,97478.02
2023-03-06T05:32:35.895Z,97478.66
2023-03-06T05:35:05.188Z,97478.09
2023-03-06T05:37:33.106Z,97480.20
2023-03-06T05:40:00.875Z,97479.70
2023-03-06T05:42:31.115Z,97481.91
2023-03-06T05:44:58.154Z,97476.77
2023-03-06T05:47:25.164Z,97476.42
2023-03-06T05:49:52.206Z,97476.70
2023-03-06T05:52:19.258Z,97476.10
2023-03-06T05:54:51.607Z,97475.25
2023-03-06T05:57:20.917Z,97480.14
2023-03-06T05:59:49.502Z,97479.33
2023-03-06T06:02:17.884Z,97483.44
2023-03-06T06:04:46.016Z,97488.33
2023-03-06T06:07:15.529Z,97486.89
2023-03-06T06:09:45.778Z,97486.29
2023-03-06T06:12:13.878Z,97483.23
2023-03-06T06:14:40.986Z,97482.41
2023-03-06T06:17:07.940Z,97478.23
2023-03-06T06:19:35.322Z,97478.98
2023-03-06T06:22:03.985Z,97479.20
2023-03-06T06:24:32.238Z,97479.15
2023-03-06T06:27:03.298Z,97481.89
2023-03-06T06:29:31.257Z,97479.95
2023-03-06T06:31:58.933Z,97480.16
2023-03-06T06:34:27.186Z,97482.90
2023-03-06T06:36:54.844Z,97484.25
2023-03-06T06:39:23.923Z,97485.59
2023-03-06T06:42:09.609Z,97487.63
2023-03-06T06:44:40.482Z,97492.58
2023-03-06T06:47:25.089Z,97494.08
2023-03-06T06:49:54.884Z,97493.80
2023-03-06T06:52:23.178Z,97493.80
2023-03-06T06:54:50.295Z,97490.73
2023-03-06T06:57:17.903Z,97493.55
2023-03-06T06:59:44.705Z,97493.33
2023-03-06T07:02:14.095Z,97492.30
2023-03-06T07:04:52.734Z,97495.04
2023-03-06T07:07:25.404Z,97495.78
2023-03-06T07:09:53.208Z,97494.16
2023-03-06T07:12:20.203Z,97494.96
2023-03-06T07:14:47.275Z,97492.14
2023-03-06T07:17:14.422Z,97495.77
2023-03-06T07:19:41.324Z,97495.65
2023-03-06T07:22:08.215Z,97497.16
2023-03-06T07:24:36.258Z,97494.45
2023-03-06T07:27:03.125Z,97498.42
2023-03-06T07:29:30.208Z,97499.92
2023-03-06T07:31:57.210Z,97502.67
2023-03-06T07:34:24.206Z,97501.86
2023-03-06T07:36:51.535Z,97502.17
2023-03-06T07:39:18.582Z,97502.73
2023-03-06T07:41:45.594Z,97502.59
2023-03-06T07:44:12.750Z,97506.25
2023-03-06T07:46:39.705Z,97504.23
2023-03-06T07:49:06.702Z,97506.08
2023-03-06T07:51:33.874Z,97509.66
2023-03-06T07:54:00.931Z,97507.75
2023-03-06T07:56:28.050Z,97507.89
2023-03-06T07:58:56.166Z,97508.67
2023-03-06T08:01:24.711Z,97504.57
2023-03-06T08:03:52.579Z,97506.38
2023-03-06T08:06:25.765Z,97507.14
2023-03-06T08:08:55.294Z,97504.77
2023-03-06T08:11:24.949Z,97503.38
2023-03-06T08:13:53.261Z,97504.79
2023-03-06T08:16:22.427Z,97506.52
2023-03-06T08:18:50.323Z,97503.21
2023-03-06T08:21:21.047Z,97505.09
2023-03-06T08:23:48.932Z,97508.27
2023-03-06T08:26:34.770Z,97507.97
2023-03-06T08:29:03.405Z,97505.40
2023-03-06T08:31:37.096Z,97507.39
2023-03-06T08:34:26.211Z,97510.35
2023-03-06T08:36:53.807Z,97508.94
2023-03-06T08:39:21.662Z,97511.16
2023-03-06T08:41:48.795Z,97510.52
2023-03-06T08:44:15.758Z,97504.95
2023-03-06T08:46:42.764Z,97509.23
2023-03-06T08:49:12.816Z,97510.54
2023-03-06T08:51:40.284Z,97514.25
2023-03-06T08:54:07.812Z,97507.30
2023-03-06T08:56:35.242Z,97507.63
2023-03-06T08:59:04.097Z,97508.98
2023-03-06T09:01:34.500Z,97508.17
2023-03-06T09:04:05.536Z,97512.30
2023-03-06T09:06:34.785Z,97511.59
2023-03-06T09:09:02.384Z,97511.46
2023-03-06T09:11:29.837Z,97510.23
2023-03-06T09:13:58.037Z,97512.11
2023-03-06T09:16:25.772Z,97506.11
2023-03-06T09:18:54.460Z,97506.20
2023-03-06T09:21:23.167Z,97504.13
2023-03-06T09:23:50.869Z,97504.27
2023-03-06T09:26:18.965Z,97503.34
2023-03-06T09:28:46.062Z,97498.09
2023-03-06T09:31:16.670Z,97492.10
2023-03-06T09:33:44.164Z,97498.45
2023-03-06T09:36:19.667Z,97496.83
2023-03-06T09:38:48.628Z,97498.12
2023-03-06T09:41:37.809Z,97496.48
2023-03-06T09:44:08.949Z,97493.77
2023-03-06T09:46:41.623Z,97492.28
2023-03-06T09:49:21.006Z,97489.69
2023-03-06T09:52:22.118Z,97494.08
2023-03-06T09:54:57.570Z,97495.19
2023-03-06T09:57:32.301Z,97493.34
2023-03-06T10:00:13.249Z,97489.62
2023-03-06T10:03:09.427Z,97486.96
2023-03-06T10:05:42.637Z,97482.27
2023-03-06T10:08:24.401Z,97485.23
2023-03-06T10:10:59.690Z,97483.83
2023-03-06T10:13:43.518Z,97482.52
2023-03-06T10:16:23.761Z,97473.44
2023-03-06T10:18:51.532Z,97465.83
2023-03-06T10:21:56.209Z,97465.56
2023-03-06T10:24:41.863Z,97459.00
2023-03-06T10:27:34.488Z,97456.73
2023-03-06T10:30:09.834Z,97456.29
2023-03-06T10:33:16.541Z,97449.48
2023-03-06T10:35:48.832Z,97443.91
2023-03-06T10:38:28.482Z,97445.03
2023-03-06T10:41:13.715Z,97441.70
2023-03-06T10:43:42.003Z,97441.83
2023-03-06T10:46:14.854Z,97442.64
2023-03-06T10:48:43.200Z,97444.35
2023-03-06T10:51:19.826Z,97442.55
2023-03-06T10:53:57.687Z,97435.93
2023-03-06T10:56:27.323Z,97430.63
2023-03-06T10:59:16.622Z,97424.33
2023-03-06T11:01:46.859Z,97417.77
2023-03-06T11:04:35.571Z,97414.60
2023-03-06T11:07:08.218Z,97412.21
2023-03-06T11:09:36.142Z,97411.15
2023-03-06T11:12:25.486Z,97410.00
2023-03-06T11:15:11.169Z,97405.38
2023-03-06T11:17:48.220Z,97400.44
2023-03-06T11:20:15.118Z,97397.73
2023-03-06T11:22:49.013Z,97392.63
2023-03-06T11:25:18.863Z,97387.94
2023-03-06T11:27:55.965Z,97386.88
2023-03-06T11:30:30.691Z,97383.05
2023-03-06T11:33:30.690Z,97380.77
2023-03-06T11:36:23.346Z,97376.48
2023-03-06T11:38:52.948Z,97375.67
2023-03-06T11:41:58.216Z,97375.12
2023-03-06T11:44:52.028Z,97375.35
2023-03-06T11:47:42.535Z,97364.58
2023-03-06T11:50:23.108Z,97359.98
2023-03-06T11:53:11.803Z,97355.42
2023-03-06T11:55:57.421Z,97349.96
2023-03-06T11:58:51.640Z,97351.20
2023-03-06T12:01:41.937Z,97342.48
2023-03-06T12:04:46.685Z,97343.05
2023-03-06T12:07:29.720Z,97343.41
2023-03-06T12:10:49.005Z,97343.36
2023-03-06T12:13:33.584Z,97341.95
2023-03-06T12:16:19.204Z,97338.23
2023-03-06T12:19:01.325Z,97336.75
2023-03-06T12:21:41.274Z,97339.58
2023-03-06T12:24:19.912Z,97337.73
2023-03-06T12:27:01.528Z,97338.77
2023-03-06T12:29:37.661Z,97332.13
2023-03-06T12:32:17.277Z,97328.39
2023-03-06T12:34:59.241Z,97331.40
2023-03-06T12:37:47.336Z,97328.70
2023-03-06T12:40:35.939Z,97328.57
2023-03-06T12:43:05.799Z,97327.95
2023-03-06T12:45:44.244Z,97324.83
2023-03-06T12:48:22.891Z,97324.67
2023-03-06T12:50:51.118Z,97321.38
2023-03-06T12:53:28.008Z,97322.85
2023-03-06T12:55:57.542Z,97321.57
2023-03-06T12:58:30.589Z,97314.86
2023-03-06T13:01:28.851Z,97314.30
2023-03-06T13:04:28.285Z,97312.89
2023-03-06T13:07:04.710Z,97308.32
2023-03-06T13:09:54.796Z,97307.42
2023-03-06T13:12:36.482Z,97307.39
2023-03-06T13:15:40.816Z,97300.98
2023-03-06T13:18:23.344Z,97296.15
2023-03-06T13:20:51.813Z,97294.58
2023-03-06T13:23:36.578Z,97293.22
2023-03-06T13:26:08.672Z,97289.83
2023-03-06T13:28:46.753Z,97286.92
2023-03-06T13:31:27.692Z,97285.32
2023-03-06T13:34:00.155Z,97284.48
2023-03-06T13:36:30.592Z,97284.81
2023-03-06T13:39:12.410Z,97285.71
2023-03-06T13:41:59.493Z,97283.05
2023-03-06T13:44:26.291Z,97282.42
2023-03-06T13:47:39.182Z,97287.09
2023-03-06T13:50:29.469Z,97287.64
2023-03-06T13:53:12.868Z,97298.90
2023-03-06T13:55:58.006Z,97310.86
2023-03-06T13:58:40.030Z,97308.70
2023-03-06T14:01:39.551Z,97303.77
2023-03-06T14:04:32.896Z,97302.17
2023-03-06T14:07:10.249Z,97293.35
2023-03-06T14:09:46.492Z,97298.13
2023-03-06T14:12:49.631Z,97291.73
2023-03-06T14:15:19.650Z,97292.36
2023-03-06T14:18:07.626Z,97281.98
2023-03-06T14:20:50.705Z,97287.75
2023-03-06T14:23:29.311Z,97286.06
2023-03-06T14:26:01.603Z,97287.02
2023-03-06T14:28:31.217Z,97287.23
2023-03-06T14:31:00.266Z,97284.59
2023-03-06T14:33:32.769Z,97288.10
2023-03-06T14:36:03.289Z,97285.95
2023-03-06T14:38:35.610Z,97292.23
2023-03-06T14:41:05.390Z,97304.14
2023-03-06T14:43:33.213Z,97294.39
2023-03-06T14:46:02.537Z,97282.82
2023-03-06T14:48:44.678Z,97288.41
2023-03-06T14:51:17.340Z,97288.48
2023-03-06T14:53:48.288Z,97295.86
2023-03-06T14:56:19.552Z,97298.65
2023-03-06T14:58:50.898Z,97299.45
2023-03-06T15:01:26.685Z,97300.29
2023-03-06T15:03:58.959Z,97295.46
2023-03-06T15:06:38.236Z,97300.93
2023-03-06T15:09:31.021Z,97289.73
2023-03-06T15:12:02.518Z,97289.86
2023-03-06T15:14:37.312Z,97290.66
2023-03-06T15:17:19.830Z,97289.52
2023-03-06T15:19:51.937Z,97289.96
2023-03-06T15:22:30.034Z,97289.13
2023-03-06T15:25:19.883Z,97281.23
2023-03-06T15:27:51.638Z,97282.55
2023-03-06T15:30:25.067Z,97275.77
2023-03-06T15:32:53.279Z,97278.98
2023-03-06T15:35:26.785Z,97274.80
2023-03-06T15:37:54.231Z,97273.35
2023-03-06T15:40:23.781Z,97275.40
2023-03-06T15:42:50.923Z,97275.28
2023-03-06T15:45:20.914Z,97275.08
2023-03-06T15:47:49.458Z,97275.48
2023-03-06T15:50:28.256Z,97276.86
2023-03-06T15:52:55.961Z,97280.05
2023-03-06T15:55:28.420Z,97273.34
2023-03-06T15:58:00.944Z,97271.88
2023-03-06T16:00:31.306Z,97266.88
2023-03-06T16:02:59.056Z,97264.70
2023-03-06T16:05:27.766Z,97259.48
2023-03-06T16:07:55.292Z,97261.13
2023-03-06T16:10:25.068Z,97261.77
2023-03-06T16:12:56.749Z,97257.77
2023-03-06T16:15:31.123Z,97258.59
2023-03-06T16:18:00.152Z,97260.36
2023-03-06T16:20:29.210Z,97260.45
2023-03-06T16:22:57.223Z,97263.18
2023-03-06T16:25:28.019Z,97264.46
2023-03-06T16:27:58.847Z,97272.98
2023-03-06T16:30:28.802Z,97269.98
2023-03-06T16:32:56.407Z,97270.67
2023-03-06T16:35:24.011Z,97271.23
2023-03-06T16:37:51.302Z,97275.15
2023-03-06T16:40:24.504Z,97274.55
2023-03-06T16:42:54.071Z,97271.95
2023-03-06T16:45:24.725Z,97270.04
2023-03-06T16:47:51.888Z,97271.58
2023-03-06T16:50:28.765Z,97274.80
2023-03-06T16:52:57.284Z,97274.67
2023-03-06T16:55:26.382Z,97274.38
2023-03-06T16:57:53.989Z,97278.28
2023-03-06T17:00:22.792Z,97278.29
2023-03-06T17:02:51.165Z,97282.58
2023-03-06T17:05:19.632Z,97282.78
2023-03-06T17:07:46.783Z,97284.28
2023-03-06T17:10:16.671Z,97284.48
2023-03-06T17:12:44.009Z,97285.83
2023-03-06T17:15:11.849Z,97282.81
2023-03-06T17:17:39.221Z,97285.43
2023-03-06T17:20:08.489Z,97285.38
2023-03-06T17:22:36.624Z,97286.60
2023-03-06T17:25:07.000Z,97285.75
2023-03-06T17:27:35.715Z,97283.09
2023-03-06T17:30:06.103Z,97281.45
2023-03-06T17:32:33.489Z,97280.20
2023-03-06T17:35:00.768Z,97280.34
2023-03-06T17:37:27.825Z,97282.32
2023-03-06T17:39:55.395Z,97276.83
2023-03-06T17:42:22.644Z,97278.35
2023-03-06T17:44:50.116Z,97281.33
2023-03-06T17:47:17.157Z,97280.48
2023-03-06T17:49:44.167Z,97276.30
2023-03-06T17:52:11.850Z,97277.16
2023-03-06T17:54:39.407Z,97276.39
2023-03-06T17:57:06.633Z,97270.77
2023-03-06T17:59:34.808Z,97273.19
2023-03-06T18:02:02.512Z,97269.95
2023-03-06T18:04:30.229Z,97271.61
2023-03-06T18:06:58.683Z,97274.45
2023-03-06T18:09:26.164Z,97275.73
2023-03-06T18:11:53.441Z,97275.11
2023-03-06T18:14:20.444Z,97277.52
2023-03-06T18:16:47.678Z,97277.10
2023-03-06T18:19:16.179Z,97277.48
2023-03-06T18:21:43.699Z,97278.70
2023-03-06T18:24:11.792Z,97278.01
2023-03-06T18:26:44.745Z,97278.86
2023-03-06T18:29:12.272Z,97275.42
2023-03-06T18:31:41.797Z,97275.62
2023-03-06T18:34:14.257Z,97278.64
2023-03-06T18:36:43.571Z,97282.59
2023-03-06T18:39:13.897Z,97283.44
2023-03-06T18:41:42.842Z,97286.08
2023-03-06T18:44:18.233Z,97286.46
2023-03-06T18:46:45.786Z,97283.52
2023-03-06T18:49:15.006Z,97282.04
2023-03-06T18:51:43.694Z,97281.91
2023-03-06T18:54:13.103Z,97288.60
2023-03-06T18:56:44.581Z,97287.56
2023-03-06T18:59:18.794Z,97288.92
2023-03-06T19:01:47.695Z,97287.61
2023-03-06T19:04:17.274Z,97286.83
2023-03-06T19:06:44.733Z,97287.52
2023-03-06T19:09:11.714Z,97283.05
2023-03-06T19:11:39.555Z,97284.27
2023-03-06T19:14:07.137Z,97282.71
2023-03-06T19:16:35.780Z,97281.30
2023-03-06T19:19:03.370Z,97282.33
2023-03-06T19:21:30.504Z,97283.63
2023-03-06T19:23:58.863Z,97282.88
2023-03-06T19:26:28.495Z,97282.67
2023-03-06T19:28:55.932Z,97285.49
2023-03-06T19:31:28.036Z,97287.81
2023-03-06T19:33:57.468Z,97292.59
2023-03-06T19:36:29.259Z,97294.63
2023-03-06T19:38:58.890Z,97296.84
2023-03-06T19:41:26.748Z,97295.27
2023-03-06T19:43:56.999Z,97300.05
2023-03-06T19:46:25.143Z,97295.10
2023-03-06T19:49:00.369Z,97297.90
2023-03-06T19:51:28.605Z,97295.69
2023-03-06T19:53:57.404Z,97294.23
2023-03-06T19:56:27.007Z,97291.92
2023-03-06T19:58:54.534Z,97292.40
2023-03-06T20:01:23.573Z,97292.04
2023-03-06T20:03:53.616Z,97294.60
2023-03-06T20:06:20.707Z,97295.68
2023-03-06T20:08:48.255Z,97295.44
2023-03-06T20:11:30.025Z,97293.48
2023-03-06T20:13:59.142Z,97297.94
2023-03-06T20:16:30.206Z,97299.91
2023-03-06T20:18:59.136Z,97300.49
2023-03-06T20:21:28.505Z,97299.09
2023-03-06T20:23:58.342Z,97303.08
2023-03-06T20:26:27.533Z,97303.34
2023-03-06T20:28:55.377Z,97303.39
2023-03-06T20:31:26.043Z,97307.64
2023-03-06T20:33:55.378Z,97305.98
2023-03-06T20:36:27.600Z,97308.17
2023-03-06T20:38:56.246Z,97302.89
2023-03-06T20:41:26.809Z,97298.45
2023-03-06T20:43:54.978Z,97296.82
2023-03-06T20:46:23.707Z,97296.59
2023-03-06T20:48:52.895Z,97290.95
2023-03-06T20:51:28.887Z,97291.05
2023-03-06T20:53:56.601Z,97289.30
2023-03-06T20:56:26.507Z,97287.70
2023-03-06T20:58:54.015Z,97285.49
2023-03-06T21:01:29.823Z,97281.38
2023-03-06T21:03:58.426Z,97283.02
2023-03-06T21:06:26.892Z,97284.42
2023-03-06T21:08:54.739Z,97284.18
2023-03-06T21:11:21.791Z,97286.03
2023-03-06T21:13:49.371Z,97282.00
2023-03-06T21:16:20.140Z,97283.20
2023-03-06T21:18:48.040Z,97278.42
2023-03-06T21:21:18.730Z,97278.34
2023-03-06T21:23:47.450Z,97277.73
2023-03-06T21:26:18.335Z,97277.89
2023-03-06T21:28:46.041Z,97275.47
2023-03-06T21:31:16.098Z,97271.00
2023-03-06T21:33:44.208Z,97274.59
2023-03-06T21:36:11.938Z,97270.77
2023-03-06T21:38:39.058Z,97274.94
2023-03-06T21:41:19.634Z,97274.33
2023-03-06T21:43:47.069Z,97270.90
2023-03-06T21:46:14.892Z,97265.58
2023-03-06T21:48:41.772Z,97267.44
2023-03-06T21:51:11.938Z,97264.23
2023-03-06T21:53:42.000Z,97266.23
2023-03-06T21:56:09.664Z,97267.77
2023-03-06T21:58:36.889Z,97266.09
2023-03-06T22:01:09.957Z,97262.69
2023-03-06T22:03:36.939Z,97266.20
2023-03-06T22:06:12.892Z,97263.49
2023-03-06T22:08:41.719Z,97262.09
2023-03-06T22:11:18.158Z,97262.63
2023-03-06T22:13:46.182Z,97262.08
2023-03-06T22:16:14.581Z,97261.81
2023-03-06T22:18:46.143Z,97262.02
2023-03-06T22:21:15.944Z,97261.16
2023-03-06T22:23:43.241Z,97260.83
2023-03-06T22:26:13.005Z,97260.94
2023-03-06T22:28:41.463Z,97259.38
2023-03-06T22:31:13.622Z,97260.63
2023-03-06T22:33:41.410Z,97255.65
2023-03-06T22:36:14.815Z,97256.77
2023-03-06T22:38:43.841Z,97255.07
2023-03-06T22:41:12.500Z,97256.08
2023-03-06T22:43:40.052Z,97254.55
2023-03-06T22:46:12.670Z,97252.08
2023-03-06T22:48:40.297Z,97252.19
2023-03-06T22:51:10.077Z,97255.88
2023-03-06T22:53:38.854Z,97251.59
2023-03-06T22:56:08.406Z,97248.92
2023-03-06T22:58:37.601Z,97250.96
2023-03-06T23:01:10.243Z,97252.18
2023-03-06T23:03:39.681Z,97251.50
2023-03-06T23:06:12.883Z,97254.44
2023-03-06T23:08:40.592Z,97252.42
2023-03-06T23:11:10.353Z,97252.60
2023-03-06T23:13:38.490Z,97256.73
2023-03-06T23:16:07.332Z,97255.77
2023-03-06T23:18:36.104Z,97262.03
2023-03-06T23:21:12.347Z,97260.09
2023-03-06T23:23:40.647Z,97262.62
2023-03-06T23:26:09.222Z,97260.44
2023-03-06T23:28:36.125Z,97257.48
2023-03-06T23:31:11.098Z,97252.65
2023-03-06T23:33:39.294Z,97255.58
2023-03-06T23:36:08.652Z,97256.05
2023-03-06T23:38:36.191Z,97253.17
2023-03-06T23:41:14.668Z,97254.34
2023-03-06T23:43:42.182Z,97254.53
2023-03-06T23:46:09.800Z,97256.30
2023-03-06T23:48:39.124Z,97252.48
2023-03-06T23:51:08.519Z,97253.06
2023-03-06T23:53:36.006Z,97249.31
2023-03-06T23:56:06.862Z,97249.33
2023-03-06T23:58:34.457Z,97249.98
